createdAt,value
2018-07-24T00:00:20.090Z,811.00
2018-07-24T00:01:20.886Z,810.00
2018-07-24T00:02:21.663Z,813.00
2018-07-24T00:03:22.474Z,812.00
2018-07-24T00:04:22.221Z,812.00
2018-07-24T00:05:23.997Z,809.00
2018-07-24T00:06:24.840Z,809.00
2018-07-24T00:07:24.572Z,811.00
2018-07-24T00:08:26.353Z,807.00
2018-07-24T00:09:26.139Z,807.00
2018-07-24T00:10:27.907Z,808.00
2018-07-24T00:11:28.755Z,808.00
2018-07-24T00:12:28.486Z,808.00
2018-07-24T00:13:30.275Z,808.00
2018-07-24T00:14:31.040Z,807.00
2018-07-24T00:15:31.820Z,808.00
2018-07-24T00:16:32.628Z,809.00
2018-07-24T00:17:33.398Z,810.00
2018-07-24T00:18:34.184Z,806.00
2018-07-24T00:19:34.960Z,807.00
2018-07-24T00:20:35.747Z,807.00
2018-07-24T00:21:36.544Z,807.00
2018-07-24T00:22:37.320Z,809.00
2018-07-24T00:23:38.107Z,808.00
2018-07-24T00:24:38.872Z,807.00
2018-07-24T00:25:39.646Z,807.00
2018-07-24T00:26:40.461Z,806.00
2018-07-24T00:27:41.231Z,808.00
2018-07-24T00:28:42.434Z,807.00
2018-07-24T00:29:42.717Z,807.00
2018-07-24T16:28:11.071Z,774.00
2018-07-24T16:29:11.860Z,758.00
2018-07-24T16:30:12.626Z,757.00
2018-07-24T16:31:13.402Z,756.00
2018-07-24T16:32:14.177Z,754.00
2018-07-24T16:33:14.985Z,754.00
2018-07-24T16:34:15.768Z,758.00
2018-07-24T16:35:16.618Z,754.00
2018-07-24T16:36:16.323Z,752.00
2018-07-24T16:37:18.218Z,752.00
2018-07-24T16:38:17.907Z,751.00
2018-07-24T16:39:19.693Z,758.00
2018-07-24T16:40:20.461Z,750.00
2018-07-24T16:41:21.241Z,750.00
2018-07-24T16:42:22.013Z,749.00
2018-07-24T16:43:22.839Z,749.00
2018-07-24T16:44:23.625Z,750.00
2018-07-24T16:45:24.390Z,749.00
2018-07-24T16:46:25.174Z,751.00
2018-07-24T16:47:26.958Z,757.00
2018-07-24T16:48:26.752Z,750.00
2018-07-24T16:49:27.545Z,752.00
2018-07-24T16:50:28.347Z,751.00
2018-07-24T16:51:28.106Z,750.00
2018-07-24T16:52:29.879Z,750.00
2018-07-24T16:53:30.686Z,751.00
2018-07-24T16:54:31.470Z,750.00
2018-07-24T16:55:32.247Z,749.00
2018-07-24T16:56:33.022Z,752.00
2018-07-24T16:57:33.799Z,751.00
2018-07-24T16:58:34.606Z,752.00
2018-07-24T16:59:35.395Z,750.00
2018-07-24T17:00:36.165Z,759.00
2018-07-24T17:01:36.944Z,754.00
2018-07-24T17:02:37.718Z,753.00
2018-07-24T17:03:38.539Z,754.00
2018-07-24T17:04:39.312Z,753.00
2018-07-24T17:05:40.087Z,753.00
2018-07-24T17:06:40.870Z,754.00
2018-07-24T17:07:41.645Z,759.00
2018-07-24T17:08:42.448Z,754.00
2018-07-24T17:09:43.225Z,757.00
2018-07-24T17:10:44.009Z,754.00
2018-07-24T17:11:44.803Z,754.00
2018-07-24T17:12:45.576Z,754.00
2018-07-24T17:13:46.447Z,757.00
2018-07-24T17:14:46.148Z,758.00
2018-07-24T17:15:47.925Z,759.00
2018-07-24T17:16:48.703Z,758.00
2018-07-24T17:17:49.473Z,758.00
2018-07-24T17:18:50.284Z,762.00
2018-07-24T17:19:51.063Z,763.00
2018-07-24T17:20:50.834Z,762.00
2018-07-24T17:21:52.614Z,763.00
2018-07-24T17:22:53.392Z,764.00
2018-07-24T17:23:54.199Z,766.00
2018-07-24T17:24:54.975Z,765.00
2018-07-24T17:25:55.748Z,763.00
2018-07-24T17:26:57.533Z,763.00
2018-07-24T17:27:57.307Z,762.00
2018-07-24T17:28:58.113Z,762.00
2018-07-24T17:29:58.896Z,764.00
2018-07-24T17:30:59.673Z,764.00
2018-07-24T17:32:00.445Z,766.00
2018-07-24T17:33:01.222Z,766.00
2018-07-24T17:34:02.032Z,768.00
2018-07-24T17:35:02.801Z,774.00
2018-07-24T17:36:03.678Z,775.00
2018-07-24T17:37:03.375Z,776.00
2018-07-24T17:38:05.152Z,778.00
2018-07-24T17:39:05.965Z,782.00
2018-07-24T17:40:06.743Z,782.00
2018-07-24T17:41:07.527Z,782.00
2018-07-24T17:42:08.305Z,783.00
2018-07-24T17:43:09.074Z,780.00
2018-07-24T17:44:09.883Z,780.00
2018-07-24T17:45:10.659Z,781.00
2018-07-24T17:46:11.440Z,780.00
2018-07-24T17:47:12.218Z,782.00
2018-07-24T17:48:13.102Z,777.00
2018-07-24T17:49:12.810Z,776.00
2018-07-24T17:50:14.587Z,778.00
2018-07-24T17:51:15.380Z,774.00
2018-07-24T17:52:15.139Z,774.00
2018-07-24T17:53:16.992Z,773.00
2018-07-24T17:54:16.728Z,773.00
2018-07-24T17:55:18.498Z,773.00
2018-07-24T17:56:19.278Z,772.00
2018-07-24T17:57:20.057Z,771.00
2018-07-24T17:58:20.831Z,768.00
2018-07-24T17:59:21.639Z,771.00
2018-07-24T18:00:22.425Z,771.00
2018-07-24T18:01:23.204Z,770.00
2018-07-24T18:02:23.977Z,771.00
2018-07-24T18:03:24.756Z,771.00
2018-07-24T18:04:25.573Z,770.00
2018-07-24T18:05:26.343Z,771.00
2018-07-24T18:06:27.119Z,770.00
2018-07-24T18:07:27.940Z,774.00
2018-07-24T18:08:27.677Z,769.00
2018-07-24T18:09:30.481Z,769.00
2018-07-24T18:10:30.258Z,773.00
2018-07-24T18:11:31.049Z,772.00
2018-07-24T18:12:31.816Z,774.00
2018-07-24T18:13:32.597Z,774.00
2018-07-24T18:14:33.397Z,775.00
2018-07-24T18:15:34.213Z,773.00
2018-07-24T18:16:33.955Z,772.00
2018-07-24T18:17:35.734Z,771.00
2018-07-24T18:18:36.518Z,773.00
2018-07-24T18:19:37.321Z,775.00
2018-07-24T18:20:38.180Z,773.00
2018-07-24T18:21:37.888Z,771.00
2018-07-24T18:22:39.664Z,773.00
2018-07-24T18:23:40.440Z,772.00
2018-07-24T18:24:41.247Z,774.00
2018-07-24T18:25:43.809Z,771.00
2018-07-24T18:26:53.041Z,774.00
2018-07-24T18:27:53.903Z,774.00
2018-07-24T18:28:53.597Z,768.00
2018-07-24T18:29:55.398Z,770.00
2018-07-24T18:30:56.171Z,770.00
2018-07-24T18:31:56.968Z,768.00
2018-07-24T18:32:57.724Z,773.00
2018-07-24T18:33:58.501Z,768.00
2018-07-24T18:34:59.349Z,769.00
2018-07-24T18:36:00.098Z,770.00
2018-07-24T18:37:00.873Z,769.00
2018-07-24T18:38:01.652Z,771.00
2018-07-24T18:39:02.514Z,769.00
2018-07-24T18:40:02.244Z,769.00
2018-07-24T18:41:04.019Z,772.00
2018-07-24T18:42:04.798Z,771.00
2018-07-24T18:43:05.573Z,772.00
2018-07-24T18:44:06.351Z,771.00
2018-07-24T18:45:07.153Z,772.00
2018-07-24T18:46:08.924Z,771.00
2018-07-24T18:47:08.701Z,770.00
2018-07-24T18:48:10.473Z,772.00
2018-07-24T18:49:10.250Z,772.00
2018-07-24T18:50:11.059Z,771.00
2018-07-24T18:51:11.833Z,772.00
2018-07-24T18:52:12.625Z,772.00
2018-07-24T18:53:13.434Z,772.00
2018-07-24T18:54:13.174Z,773.00
2018-07-24T18:55:15.003Z,773.00
2018-07-24T18:56:15.764Z,774.00
2018-07-24T18:57:16.548Z,773.00
2018-07-24T18:58:17.317Z,774.00
2018-07-24T18:59:18.119Z,773.00
2018-07-24T19:00:18.894Z,775.00
2018-07-24T19:01:19.846Z,774.00
2018-07-24T19:02:19.451Z,774.00
2018-07-24T19:03:21.227Z,774.00
2018-07-24T19:04:22.005Z,774.00
2018-07-24T19:05:22.836Z,774.00
2018-07-24T19:06:22.600Z,775.00
2018-07-24T19:07:24.374Z,777.00
2018-07-24T19:08:25.156Z,774.00
2018-07-24T19:09:25.925Z,775.00
2018-07-24T19:10:27.727Z,773.00
2018-07-24T19:11:27.511Z,776.00
2018-07-24T19:12:28.287Z,778.00
2018-07-24T19:13:29.070Z,776.00
2018-07-24T19:14:29.844Z,777.00
2018-07-24T19:15:29.652Z,777.00
2018-07-24T19:16:31.430Z,777.00
2018-07-24T19:17:33.208Z,776.00
2018-07-24T19:18:32.986Z,777.00
2018-07-24T19:19:33.765Z,777.00
2018-07-24T19:20:34.571Z,777.00
2018-07-24T19:21:35.435Z,777.00
2018-07-24T19:22:35.132Z,777.00
2018-07-24T19:23:36.920Z,777.00
2018-07-24T19:24:37.693Z,777.00
2018-07-24T19:25:38.496Z,783.00
2018-07-24T19:26:39.357Z,782.00
2018-07-24T19:27:39.060Z,780.00
2018-07-24T19:28:40.835Z,778.00
2018-07-24T19:29:41.615Z,778.00
2018-07-24T19:30:42.430Z,778.00
2018-07-24T19:31:43.206Z,780.00
2018-07-24T19:32:44.983Z,778.00
2018-07-24T19:33:44.842Z,782.00
2018-07-24T19:34:44.557Z,782.00
2018-07-24T19:35:46.354Z,781.00
2018-07-24T19:36:46.135Z,783.00
2018-07-24T19:37:47.908Z,780.00
2018-07-24T19:38:47.681Z,781.00
2018-07-24T19:39:49.466Z,782.00
2018-07-24T19:40:50.274Z,784.00
2018-07-24T19:41:51.056Z,783.00
2018-07-24T19:42:51.838Z,780.00
2018-07-24T19:43:52.697Z,781.00
2018-07-24T19:44:52.379Z,780.00
2018-07-24T19:45:54.180Z,781.00
2018-07-24T19:46:54.953Z,774.00
2018-07-24T19:47:55.732Z,781.00
2018-07-24T19:48:56.533Z,777.00
2018-07-24T19:49:57.307Z,782.00
2018-07-24T19:50:58.114Z,778.00
2018-07-24T19:51:58.907Z,784.00
2018-07-24T19:52:59.674Z,783.00
2018-07-24T19:54:00.533Z,782.00
2018-07-24T19:55:00.240Z,783.00
2018-07-24T19:56:02.108Z,783.00
2018-07-24T19:57:01.829Z,785.00
2018-07-24T19:58:03.599Z,785.00
2018-07-24T19:59:04.458Z,784.00
2018-07-24T20:00:04.160Z,784.00
2018-07-24T20:01:05.967Z,784.00
2018-07-24T20:02:06.746Z,787.00
2018-07-24T20:03:07.570Z,783.00
2018-07-24T20:04:07.316Z,784.00
2018-07-24T20:05:09.084Z,784.00
2018-07-24T20:06:09.893Z,783.00
2018-07-24T20:07:10.684Z,783.00
2018-07-24T20:08:11.452Z,783.00
2018-07-24T20:09:12.237Z,781.00
2018-07-24T20:10:13.076Z,786.00
2018-07-24T20:11:12.808Z,787.00
2018-07-24T20:12:14.590Z,788.00
2018-07-24T20:13:15.445Z,788.00
2018-07-24T20:14:15.146Z,786.00
2018-07-24T20:15:16.927Z,786.00
2018-07-24T20:16:17.738Z,786.00
2018-07-24T20:17:18.511Z,787.00
2018-07-24T20:18:19.289Z,785.00
2018-07-24T20:19:20.065Z,785.00
2018-07-24T20:20:20.843Z,785.00
2018-07-24T20:21:21.654Z,785.00
2018-07-24T20:22:22.434Z,788.00
2018-07-24T20:23:23.422Z,787.00
2018-07-24T20:24:23.065Z,786.00
2018-07-24T20:25:23.775Z,786.00
2018-07-24T20:26:25.596Z,786.00
2018-07-24T20:27:26.363Z,781.00
2018-07-24T20:28:27.138Z,787.00
2018-07-24T20:29:27.914Z,784.00
2018-07-24T20:30:28.690Z,786.00
2018-07-24T20:31:32.440Z,783.00
2018-07-24T20:50:37.034Z,810.00
2018-07-24T20:51:37.824Z,798.00
2018-07-24T20:52:38.604Z,794.00
2018-07-24T20:53:39.389Z,793.00
2018-07-24T20:54:40.143Z,792.00
2018-07-24T20:55:41.293Z,790.00
2018-07-24T20:56:40.256Z,794.00
2018-07-24T20:57:40.958Z,793.00
2018-07-24T20:58:42.733Z,793.00
2018-07-24T20:59:43.506Z,792.00
2018-07-24T21:00:43.310Z,793.00
2018-07-24T21:01:45.329Z,794.00
2018-07-24T21:02:45.165Z,793.00
2018-07-24T21:03:47.103Z,793.00
2018-07-24T21:04:47.143Z,793.00
2018-07-24T21:05:47.305Z,793.00
2018-07-24T21:06:47.302Z,794.00
2018-07-24T21:07:48.195Z,792.00
2018-07-24T21:08:49.058Z,789.00
2018-07-24T21:09:51.067Z,789.00
2018-07-24T21:10:51.265Z,786.00
2018-07-24T21:11:51.313Z,794.00
2018-07-24T21:12:51.358Z,792.00
2018-07-24T21:13:51.376Z,793.00
2018-07-24T21:14:51.335Z,792.00
2018-07-24T21:15:52.641Z,793.00
2018-07-24T21:16:52.653Z,793.00
2018-07-24T21:17:52.673Z,793.00
2018-07-24T21:18:52.695Z,793.00
2018-07-24T21:19:52.666Z,794.00
2018-07-24T21:20:53.483Z,794.00
2018-07-24T21:21:54.193Z,793.00
2018-07-24T21:22:56.155Z,794.00
2018-07-24T21:23:56.138Z,795.00
2018-07-24T21:24:57.195Z,794.00
2018-07-24T21:25:57.367Z,795.00
2018-07-24T21:26:57.345Z,794.00
2018-07-24T21:27:58.386Z,794.00
2018-07-24T21:28:58.399Z,795.00
2018-07-24T21:29:58.323Z,794.00
2018-07-24T21:30:59.443Z,790.00
2018-07-24T21:31:59.419Z,795.00
2018-07-24T21:33:00.449Z,795.00
2018-07-24T21:34:00.489Z,798.00
2018-07-24T21:35:00.501Z,797.00
2018-07-24T21:36:00.536Z,798.00
2018-07-24T21:37:00.819Z,796.00
2018-07-24T21:38:00.749Z,798.00
2018-07-24T21:39:01.677Z,795.00
2018-07-24T21:40:02.689Z,796.00
2018-07-24T21:41:02.717Z,794.00
2018-07-24T21:42:02.892Z,796.00
2018-07-24T21:43:02.906Z,795.00
2018-07-24T21:44:02.922Z,795.00
2018-07-24T21:45:02.932Z,796.00
2018-07-24T21:46:02.918Z,795.00
2018-07-24T21:47:04.055Z,794.00
2018-07-24T21:48:04.090Z,794.00
2018-07-24T21:49:04.102Z,795.00
2018-07-24T21:50:04.907Z,796.00
2018-07-24T21:51:05.925Z,793.00
2018-07-24T21:52:06.084Z,798.00
2018-07-24T21:53:06.017Z,797.00
2018-07-24T21:54:07.042Z,796.00
2018-07-24T21:55:06.740Z,797.00
2018-07-24T21:56:08.757Z,794.00
2018-07-24T21:57:08.734Z,796.00
2018-07-24T21:58:09.657Z,796.00
2018-07-24T21:59:10.620Z,796.00
2018-07-24T22:00:11.628Z,795.00
2018-07-24T22:01:12.601Z,796.00
2018-07-24T22:02:13.638Z,796.00
2018-07-24T22:03:13.614Z,798.00
2018-07-24T22:04:14.578Z,794.00
2018-07-24T22:05:15.543Z,797.00
2018-07-24T22:06:16.246Z,799.00
2018-07-24T22:07:18.144Z,796.00
2018-07-24T22:08:17.850Z,798.00
2018-07-24T22:09:19.630Z,794.00
2018-07-24T22:10:20.580Z,797.00
2018-07-24T22:11:20.629Z,798.00
2018-07-24T22:12:20.766Z,800.00
2018-07-24T22:13:20.784Z,798.00
2018-07-24T22:14:20.774Z,800.00
2018-07-24T22:15:20.811Z,801.00
2018-07-24T22:16:20.838Z,799.00
2018-07-24T22:17:20.877Z,800.00
2018-07-24T22:18:21.101Z,799.00
2018-07-24T22:19:21.078Z,802.00
2018-07-24T22:20:22.109Z,798.00
2018-07-24T22:21:22.066Z,796.00
2018-07-24T22:22:22.986Z,798.00
2018-07-24T22:23:24.220Z,797.00
2018-07-24T22:24:24.147Z,798.00
2018-07-24T22:25:25.174Z,796.00
2018-07-24T22:26:27.161Z,797.00
2018-07-24T22:27:26.170Z,797.00
2018-07-24T22:28:26.457Z,796.00
2018-07-24T22:29:26.380Z,798.00
2018-07-24T22:30:27.390Z,795.00
2018-07-24T22:31:27.346Z,797.00
2018-07-24T22:32:28.386Z,797.00
2018-07-24T22:33:28.534Z,796.00
2018-07-24T22:34:28.544Z,799.00
2018-07-24T22:35:28.514Z,797.00
2018-07-24T22:36:29.520Z,798.00
2018-07-24T22:37:29.561Z,798.00
2018-07-24T22:38:29.577Z,799.00
2018-07-24T22:39:29.848Z,799.00
2018-07-24T22:40:29.854Z,800.00
2018-07-24T22:41:29.786Z,799.00
2018-07-24T22:42:30.809Z,799.00
2018-07-24T22:43:31.799Z,800.00
2018-07-24T22:44:32.126Z,799.00
2018-07-24T22:45:32.159Z,800.00
2018-07-24T22:46:31.860Z,798.00
2018-07-24T22:47:33.636Z,799.00
2018-07-24T22:48:34.416Z,799.00
2018-07-24T22:49:35.214Z,799.00
2018-07-24T22:50:35.990Z,795.00
2018-07-24T22:51:36.765Z,800.00
2018-07-24T22:52:37.538Z,796.00
2018-07-24T22:53:38.315Z,798.00
2018-07-24T22:54:39.118Z,796.00
2018-07-24T22:55:39.890Z,801.00
2018-07-24T22:56:40.722Z,797.00
2018-07-24T22:57:40.440Z,800.00
2018-07-24T22:58:42.217Z,799.00
2018-07-24T22:59:43.018Z,799.00
2018-07-24T23:00:43.798Z,801.00
2018-07-24T23:01:44.582Z,800.00
2018-07-24T23:02:45.355Z,800.00
2018-07-24T23:03:46.139Z,801.00
2018-07-24T23:04:46.930Z,804.00
2018-07-24T23:05:47.700Z,806.00
2018-07-24T23:06:48.479Z,806.00
2018-07-24T23:07:49.247Z,808.00
2018-07-24T23:08:50.030Z,807.00
2018-07-24T23:09:50.827Z,807.00
2018-07-24T23:10:51.603Z,802.00
2018-07-24T23:11:52.375Z,807.00
2018-07-24T23:12:53.155Z,804.00
2018-07-24T23:13:53.926Z,805.00
2018-07-24T23:14:54.730Z,802.00
2018-07-24T23:15:55.505Z,806.00
2018-07-24T23:16:56.337Z,806.00
2018-07-24T23:17:56.061Z,807.00
2018-07-24T23:18:57.841Z,806.00
2018-07-24T23:19:58.644Z,808.00
2018-07-24T23:20:59.504Z,810.00
2018-07-24T23:21:59.207Z,810.00
2018-07-24T23:23:00.983Z,809.00
2018-07-24T23:24:02.758Z,807.00
2018-07-24T23:25:02.564Z,808.00
2018-07-24T23:26:03.343Z,806.00
2018-07-24T23:27:04.121Z,804.00
2018-07-24T23:28:04.895Z,804.00
2018-07-24T23:29:05.672Z,802.00
2018-07-24T23:30:06.480Z,805.00
2018-07-24T23:31:07.258Z,804.00
2018-07-24T23:32:08.033Z,804.00
2018-07-24T23:33:08.812Z,799.00
2018-07-24T23:34:09.581Z,802.00
2018-07-24T23:35:10.382Z,800.00
2018-07-24T23:36:11.159Z,802.00
2018-07-24T23:37:11.930Z,800.00
2018-07-24T23:38:12.707Z,801.00
2018-07-24T23:39:13.483Z,801.00
2018-07-24T23:40:14.282Z,801.00
2018-07-24T23:41:15.057Z,802.00
2018-07-24T23:42:15.831Z,800.00
2018-07-24T23:43:16.612Z,801.00
2018-07-24T23:44:17.396Z,801.00
2018-07-24T23:45:18.200Z,799.00
2018-07-24T23:46:18.984Z,801.00
2018-07-24T23:47:19.753Z,800.00
2018-07-24T23:48:20.537Z,800.00
2018-07-24T23:49:21.308Z,799.00
2018-07-24T23:50:22.119Z,800.00
2018-07-24T23:51:22.896Z,797.00
2018-07-24T23:52:23.678Z,802.00
2018-07-24T23:53:24.462Z,801.00
2018-07-24T23:54:25.228Z,800.00
2018-07-24T23:55:26.035Z,800.00
2018-07-24T23:56:26.809Z,804.00
2018-07-24T23:57:27.587Z,801.00
2018-07-24T23:58:28.436Z,801.00
2018-07-24T23:59:28.148Z,801.00
